Time;durP1;ratioP1;P1;durP2;ratioP2;P2;SDS_P1;SDS_P2;PMS_P1;PMS_P2;Temp;Humidity;BMP_temperature;BMP_pressure;BME280_temperature;BME280_humidity;BME280_pressure;Samples;Min_cycle;Max_cycle;Signal;HPM_P1;HPM_P2
2023/01/05 00:01:29;;;;;;;59.42;25.20;;;;;;;9.95;100.00;101521.94;4947665;29;20066;-89
2023/01/05 00:03:55;;;;;;;54.80;23.75;;;;;;;9.92;100.00;101511.63;4964294;29;20510;-87
2023/01/05 00:06:21;;;;;;;58.25;25.38;;;;;;;9.78;100.00;101512.81;4964023;29;20043;-89
2023/01/05 00:08:46;;;;;;;60.25;24.92;;;;;;;9.61;100.00;101508.16;4962565;28;20062;-88
2023/01/05 00:22:50;;;;;;;60.58;26.45;;;;;;;9.61;100.00;101482.50;4963782;29;20042;-88
2023/01/05 00:25:18;;;;;;;57.13;25.85;;;;;;;9.52;100.00;101478.00;4962257;28;20035;-86
2023/01/05 00:27:46;;;;;;;58.17;26.33;;;;;;;9.73;100.00;101477.97;4944303;29;20035;-89
2023/01/05 00:30:16;;;;;;;56.90;24.75;;;;;;;9.76;100.00;101486.47;4942668;29;20039;-89
2023/01/05 00:32:45;;;;;;;54.67;23.77;;;;;;;9.85;100.00;101475.09;4960118;29;20042;-89
2023/01/05 00:35:13;;;;;;;56.75;25.20;;;;;;;9.66;100.00;101469.72;4942920;29;20039;-87
2023/01/05 00:37:39;;;;;;;58.13;25.20;;;;;;;9.47;100.00;101468.78;4961211;29;20478;-87
2023/01/05 00:40:07;;;;;;;60.53;25.17;;;;;;;9.47;100.00;101464.34;4959883;28;20131;-87
2023/01/05 00:42:33;;;;;;;58.92;23.90;;;;;;;9.33;100.00;101468.19;4961014;29;20043;-88
2023/01/05 00:44:58;;;;;;;61.25;25.30;;;;;;;9.42;100.00;101461.25;4960598;29;20031;-88
2023/01/05 00:47:24;;;;;;;62.40;26.30;;;;;;;9.52;100.00;101454.19;4963291;28;20528;-88
2023/01/05 00:49:50;;;;;;;60.60;25.20;;;;;;;9.61;100.00;101448.09;4962759;29;20043;-87
2023/01/05 00:52:16;;;;;;;54.60;24.42;;;;;;;9.60;100.00;101451.72;4944838;29;20031;-89
2023/01/05 00:54:41;;;;;;;58.65;23.48;;;;;;;9.63;100.00;101446.16;4944729;29;20405;-87
2023/01/05 00:57:10;;;;;;;57.95;24.00;;;;;;;9.69;100.00;101452.72;4964739;28;20066;-89
2023/01/05 00:59:36;;;;;;;54.47;24.40;;;;;;;9.75;100.00;101454.84;4953988;23;20059;-87
2023/01/05 01:02:01;;;;;;;63.85;24.73;;;;;;;9.74;100.00;101451.34;4941884;29;20474;-89
2023/01/05 01:04:29;;;;;;;61.92;25.13;;;;;;;9.75;100.00;101453.03;4943970;29;20043;-88
2023/01/05 01:06:55;;;;;;;59.58;24.88;;;;;;;9.76;100.00;101460.00;4941853;29;20040;-86
2023/01/05 01:09:43;;;;;;;58.92;25.17;;;;;;;9.80;100.00;101442.91;4944119;29;20058;-87
2023/01/05 01:12:11;;;;;;;58.53;23.02;;;;;;;9.86;100.00;101439.69;4944957;29;20047;-87
2023/01/05 01:14:38;;;;;;;54.03;23.05;;;;;;;9.99;100.00;101443.91;4942939;29;20127;-89
2023/01/05 01:17:04;;;;;;;54.38;24.08;;;;;;;9.81;100.00;101441.06;4944458;29;20090;-86
2023/01/05 01:19:30;;;;;;;54.60;23.90;;;;;;;9.69;100.00;101440.34;4943872;29;20024;-86
2023/01/05 01:21:55;;;;;;;48.33;22.88;;;;;;;9.82;100.00;101425.06;4947117;29;20040;-85
2023/01/05 01:24:26;;;;;;;59.30;24.42;;;;;;;9.68;100.00;101425.41;4932179;29;20047;-86
2023/01/05 01:26:53;;;;;;;62.05;23.50;;;;;;;9.64;100.00;101434.63;4945332;29;20090;-86
2023/01/05 01:29:59;;;;;;;52.60;23.48;;;;;;;9.69;100.00;101424.47;4944410;29;20076;-87
2023/01/05 01:32:25;;;;;;;52.65;22.08;;;;;;;9.67;100.00;101417.63;4949102;29;20051;-87
2023/01/05 01:34:50;;;;;;;44.97;21.02;;;;;;;9.84;100.00;101423.09;4958877;29;20058;-89
2023/01/05 01:37:16;;;;;;;50.65;21.77;;;;;;;9.74;100.00;101416.94;4944977;29;20039;-87
2023/01/05 01:39:48;;;;;;;55.13;22.10;;;;;;;9.81;100.00;101419.88;4944030;29;20039;-88
2023/01/05 01:42:15;;;;;;;47.80;21.20;;;;;;;9.83;100.00;101425.91;4927495;29;20039;-87
2023/01/05 01:44:54;;;;;;;47.50;20.88;;;;;;;9.66;100.00;101422.09;4941991;29;20036;-89
2023/01/05 01:47:31;;;;;;;56.75;23.15;;;;;;;9.41;100.00;101425.19;4940337;29;20506;-88
2023/01/05 01:50:01;;;;;;;62.15;22.67;;;;;;;9.46;100.00;101422.13;4940652;29;20054;-89
2023/01/05 01:52:29;;;;;;;50.28;22.55;;;;;;;9.40;100.00;101428.81;4941963;29;20051;-85
2023/01/05 01:54:56;;;;;;;54.58;22.15;;;;;;;9.30;100.00;101422.63;4940660;29;20032;-88
2023/01/05 01:57:29;;;;;;;54.05;22.05;;;;;;;9.31;100.00;101424.31;4945704;29;20091;-87
2023/01/05 01:59:58;;;;;;;51.00;21.90;;;;;;;9.55;100.00;101418.69;4944836;29;20135;-87
2023/01/05 02:02:26;;;;;;;52.85;22.58;;;;;;;9.29;100.00;101419.13;4945935;29;20095;-87
2023/01/05 02:04:51;;;;;;;59.10;24.27;;;;;;;9.04;100.00;101416.94;4944808;29;20043;-89
2023/01/05 02:07:18;;;;;;;56.63;22.83;;;;;;;8.95;100.00;101424.81;4945502;29;20482;-88
2023/01/05 02:09:45;;;;;;;58.65;23.48;;;;;;;8.81;100.00;101416.22;4944453;29;20059;-87
2023/01/05 02:12:49;;;;;;;56.47;23.65;;;;;;;8.90;100.00;101422.53;4944160;29;20036;-89
2023/01/05 02:15:23;;;;;;;55.00;22.90;;;;;;;8.78;100.00;101418.28;4926463;29;20039;-88
2023/01/05 02:18:03;;;;;;;55.40;21.80;;;;;;;8.98;100.00;101424.53;4939799;29;20102;-87
2023/01/05 02:21:00;;;;;;;56.97;22.23;;;;;;;8.95;100.00;101422.16;4938415;29;20043;-86
2023/01/05 02:23:45;;;;;;;53.08;22.45;;;;;;;8.76;100.00;101414.91;4935849;29;20048;-89
2023/01/05 02:26:49;;;;;;;58.75;22.60;;;;;;;8.72;100.00;101409.06;4937063;29;20070;-84
2023/01/05 02:29:18;;;;;;;;;;;;;;;8.71;100.00;101411.84;4940356;29;20039;-86
2023/01/05 02:32:02;;;;;;;58.22;21.77;;;;;;;8.94;100.00;101418.69;4939255;29;19918;-89
2023/01/05 02:35:03;;;;;;;57.78;21.67;;;;;;;8.87;100.00;101411.38;4940794;29;20067;-88
2023/01/05 02:38:13;;;;;;;37.35;15.18;;;;;;;9.06;100.00;101406.22;4920741;29;20064;-87
2023/01/05 02:40:48;;;;;;;50.42;20.63;;;;;;;9.05;100.00;101404.56;4938077;29;20059;-88
2023/01/05 02:43:19;;;;;;;58.47;22.38;;;;;;;9.05;100.00;101404.56;4938309;29;20383;-87
2023/01/05 02:45:45;;;;;;;54.15;21.40;;;;;;;9.11;100.00;101398.72;4937826;29;20055;-86
2023/01/05 02:48:11;;;;;;;47.10;20.30;;;;;;;9.27;100.00;101393.78;4938397;29;20122;-87
2023/01/05 02:50:45;;;;;;;53.15;21.77;;;;;;;9.14;100.00;101387.88;4938799;29;20517;-87
2023/01/05 02:53:15;;;;;;;53.47;21.30;;;;;;;9.33;100.00;101383.53;4936594;29;20044;-87
2023/01/05 02:55:53;;;;;;;51.85;20.77;;;;;;;9.10;100.00;101376.72;4936272;29;20032;-89
2023/01/05 02:58:25;;;;;;;48.42;20.40;;;;;;;9.12;100.00;101381.88;4936314;29;20028;-86
2023/01/05 03:01:01;;;;;;;41.42;15.20;;;;;;;9.04;100.00;101376.44;4920375;29;20094;-87
2023/01/05 03:03:42;;;;;;;57.15;20.75;;;;;;;9.02;100.00;101371.25;4939022;29;20063;-88
2023/01/05 03:06:16;;;;;;;53.33;21.70;;;;;;;9.04;100.00;101368.50;4923612;29;20106;-87
2023/01/05 03:08:54;;;;;;;46.83;20.95;;;;;;;9.20;100.00;101351.16;4939392;29;20092;-86
2023/01/05 03:14:27;;;;;;;45.72;19.77;;;;;;;8.66;100.00;101364.66;4931105;29;20124;-87
2023/01/05 03:16:55;;;;;;;48.65;19.92;;;;;;;8.80;100.00;101363.47;4944465;29;20036;-88
2023/01/05 03:19:38;;;;;;;47.75;19.15;;;;;;;8.97;100.00;101360.25;4943213;29;20558;-88
2023/01/05 03:36:41;;;;;;;51.05;20.20;;;;;;;8.74;100.00;101338.41;4941349;29;20077;-86
2023/01/05 03:39:08;;;;;;;49.28;20.23;;;;;;;8.66;100.00;101335.59;4943667;29;20040;-87
2023/01/05 03:41:35;;;;;;;53.08;20.42;;;;;;;8.83;100.00;101321.78;4942752;29;20040;-87
2023/01/05 03:44:01;;;;;;;54.13;20.88;;;;;;;8.79;100.00;101319.50;4942779;29;20098;-87
2023/01/05 03:46:30;;;;;;;52.25;20.52;;;;;;;8.82;100.00;101316.59;4940486;29;20071;-88
2023/01/05 03:48:57;;;;;;;52.15;19.75;;;;;;;8.94;100.00;101320.00;4942912;29;20118;-86
2023/01/05 03:51:25;;;;;;;53.20;19.23;;;;;;;9.09;100.00;101310.75;4944062;29;20360;-88
2023/01/05 03:53:50;;;;;;;44.72;18.52;;;;;;;8.98;100.00;101302.94;4941706;29;20034;-88
2023/01/05 03:56:17;;;;;;;44.40;18.98;;;;;;;8.91;100.00;101296.50;4942877;29;20044;-85
2023/01/05 03:58:46;;;;;;;47.70;18.20;;;;;;;8.88;100.00;101296.75;4943309;29;20067;-87
2023/01/05 04:01:12;;;;;;;46.20;17.17;;;;;;;8.98;100.00;101295.00;4943033;29;20036;-87
2023/01/05 04:03:39;;;;;;;46.25;19.02;;;;;;;9.18;100.00;101296.75;4943226;29;20055;-88
2023/01/05 04:06:06;;;;;;;41.47;16.92;;;;;;;9.12;100.00;101290.16;4940811;29;20039;-87
2023/01/05 04:08:33;;;;;;;44.08;17.20;;;;;;;9.20;100.00;101279.75;4941038;29;20036;-87
2023/01/05 04:11:20;;;;;;;39.25;16.38;;;;;;;9.13;100.00;101280.44;4941751;29;20042;-86
2023/01/05 04:13:51;;;;;;;37.80;16.80;;;;;;;9.17;100.00;101265.97;4942766;29;20167;-86
2023/01/05 04:16:17;;;;;;;46.78;17.48;;;;;;;9.19;100.00;101269.31;4940924;29;20032;-88
2023/01/05 04:18:48;;;;;;;39.28;16.98;;;;;;;9.26;100.00;101265.16;4940911;29;20063;-87
2023/01/05 04:21:16;;;;;;;40.58;17.80;;;;;;;9.17;100.00;101261.53;4943722;29;20040;-86
2023/01/05 04:23:45;;;;;;;39.58;17.95;;;;;;;9.14;100.00;101256.50;4954340;29;20087;-87
2023/01/05 04:26:12;;;;;;;40.38;16.38;;;;;;;9.30;100.00;101245.41;4941195;29;20490;-86
2023/01/05 04:28:37;;;;;;;38.80;17.48;;;;;;;9.27;100.00;101257.09;4941013;29;20050;-87
2023/01/05 04:31:03;;;;;;;41.50;18.70;;;;;;;9.18;100.00;101257.06;4941016;29;20059;-89
2023/01/05 04:33:31;;;;;;;40.15;17.13;;;;;;;9.14;100.00;101251.22;4939101;29;20047;-88
2023/01/05 04:35:56;;;;;;;47.58;20.48;;;;;;;9.05;100.00;101252.00;4938846;29;20398;-86
2023/01/05 04:38:25;;;;;;;34.63;17.73;;;;;;;9.20;100.00;101245.38;4938902;29;20043;-89
2023/01/05 04:40:53;;;;;;;38.40;18.88;;;;;;;9.21;100.00;101247.03;4939524;29;20032;-90
2023/01/05 04:43:22;;;;;;;37.30;18.15;;;;;;;9.22;100.00;101247.88;4939199;29;20035;-88
2023/01/05 04:45:48;;;;;;;37.85;18.38;;;;;;;9.34;100.00;101244.16;4938619;29;20059;-85
2023/01/05 04:48:15;;;;;;;35.97;17.75;;;;;;;9.11;100.00;101232.97;4938438;29;20399;-87
2023/01/05 04:50:41;;;;;;;38.15;19.23;;;;;;;9.14;100.00;101238.00;4938803;29;20036;-88
2023/01/05 04:53:07;;;;;;;38.78;18.73;;;;;;;9.27;100.00;101233.28;4940426;29;20067;-88
2023/01/05 04:55:36;;;;;;;35.95;17.75;;;;;;;9.39;100.00;101239.28;4940498;29;20030;-88
2023/01/05 04:58:02;;;;;;;40.95;20.52;;;;;;;9.25;100.00;101239.66;4924219;29;20111;-89
2023/01/05 05:00:30;;;;;;;48.50;21.98;;;;;;;8.97;100.00;101243.09;4939860;29;20127;-88
2023/01/05 05:02:57;;;;;;;48.00;21.80;;;;;;;8.88;100.00;101235.97;4924427;29;20036;-89
2023/01/05 05:05:24;;;;;;;48.60;21.35;;;;;;;8.89;100.00;101230.53;4926065;29;20058;-87
2023/01/05 05:07:52;;;;;;;47.40;21.45;;;;;;;8.99;100.00;101235.84;4939529;29;20054;-89
2023/01/05 05:10:18;;;;;;;54.42;23.40;;;;;;;9.04;100.00;101238.94;4940183;29;20040;-87
2023/01/05 05:12:47;;;;;;;53.33;23.98;;;;;;;8.96;100.00;101233.47;4938218;29;20031;-88
2023/01/05 05:15:12;;;;;;;52.80;23.35;;;;;;;8.94;100.00;101233.63;4938977;29;20089;-87
2023/01/05 05:17:45;;;;;;;;;;;;;;;8.95;100.00;101229.97;4910628;29;20051;-86
2023/01/05 05:20:13;;;;;;;59.92;25.52;;;;;;;8.91;100.00;101233.03;4938954;29;19919;-90
2023/01/05 05:22:39;;;;;;;60.15;24.88;;;;;;;9.02;100.00;101235.56;4937925;29;20027;-86
2023/01/05 05:25:05;;;;;;;57.50;24.05;;;;;;;9.01;100.00;101233.91;4937486;29;20027;-90
2023/01/05 05:27:32;;;;;;;57.50;25.08;;;;;;;9.01;100.00;101236.56;4937365;29;20043;-88
2023/01/05 05:29:57;;;;;;;53.75;24.30;;;;;;;9.13;100.00;101246.06;4939329;29;20101;-88
2023/01/05 05:32:23;;;;;;;52.33;23.35;;;;;;;9.10;100.00;101256.91;4938752;29;20038;-86
2023/01/05 05:34:48;;;;;;;47.75;22.52;;;;;;;9.26;100.00;101251.94;4937289;29;20406;-86
2023/01/05 05:37:14;;;;;;;56.20;24.23;;;;;;;9.11;100.00;101248.00;4939070;29;20039;-86
2023/01/05 05:39:41;;;;;;;50.58;23.88;;;;;;;9.08;100.00;101240.34;4938011;29;20042;-87
2023/01/05 05:42:06;;;;;;;50.00;23.25;;;;;;;9.01;100.00;101241.84;4940790;29;20118;-87
2023/01/05 05:44:31;;;;;;;56.53;23.63;;;;;;;9.19;100.00;101243.69;4937281;29;20096;-86
2023/01/05 05:46:58;;;;;;;51.75;22.70;;;;;;;9.18;100.00;101243.84;4937920;29;20558;-88
2023/01/05 05:49:23;;;;;;;60.53;24.20;;;;;;;9.27;100.00;101245.69;4937228;29;20055;-88
2023/01/05 05:51:48;;;;;;;61.17;24.63;;;;;;;9.30;100.00;101240.94;4938095;29;20036;-87
2023/01/05 05:54:14;;;;;;;56.83;23.48;;;;;;;9.27;100.00;101240.38;4937672;29;20471;-87
2023/01/05 05:56:40;;;;;;;57.72;24.25;;;;;;;9.31;100.00;101249.72;4936363;29;20040;-88
2023/01/05 05:59:05;;;;;;;58.65;25.15;;;;;;;9.23;100.00;101244.28;4938296;29;20036;-86
2023/01/05 06:01:30;;;;;;;56.40;24.25;;;;;;;9.38;100.00;101250.81;4937267;29;20035;-88
2023/01/05 06:03:56;;;;;;;52.58;23.13;;;;;;;9.32;100.00;101241.63;4938153;29;20035;-87
2023/01/05 06:06:21;;;;;;;41.53;19.08;;;;;;;9.27;100.00;101241.22;4938133;29;20542;-86
2023/01/05 06:08:47;;;;;;;37.58;19.23;;;;;;;9.41;100.00;101233.88;4938031;29;20514;-89
2023/01/05 06:11:13;;;;;;;36.97;18.48;;;;;;;9.43;100.00;101238.03;4936942;29;20042;-90
2023/01/05 06:13:38;;;;;;;41.63;18.15;;;;;;;9.36;100.00;101239.56;4939177;29;20503;-87
2023/01/05 06:16:04;;;;;;;42.55;18.23;;;;;;;9.46;100.00;101234.28;4937833;29;20035;-89
2023/01/05 06:18:29;;;;;;;34.22;18.10;;;;;;;9.20;100.00;101239.25;4937280;29;20039;-87
2023/01/05 06:20:56;;;;;;;32.63;17.67;;;;;;;9.20;100.00;101239.25;4937658;29;20043;-89
2023/01/05 06:23:22;;;;;;;34.83;18.48;;;;;;;9.29;100.00;101238.44;4938291;29;20521;-88
2023/01/05 06:25:47;;;;;;;36.58;19.38;;;;;;;9.20;100.00;101237.44;4938614;29;20063;-88
2023/01/05 06:28:13;;;;;;;40.63;17.20;;;;;;;9.27;100.00;101235.09;4941345;29;20067;-88
2023/01/05 06:30:39;;;;;;;31.25;16.80;;;;;;;9.35;100.00;101248.47;4938528;29;20040;-87
2023/01/05 06:33:05;;;;;;;31.58;17.13;;;;;;;9.28;100.00;101242.88;4938889;29;20024;-89
2023/01/05 06:35:34;;;;;;;32.00;17.45;;;;;;;9.10;100.00;101247.16;4941150;29;20094;-89
2023/01/05 06:37:59;;;;;;;36.38;18.38;;;;;;;8.99;100.00;101247.25;4941380;29;20036;-90
2023/01/05 06:40:25;;;;;;;33.60;18.02;;;;;;;8.94;100.00;101238.06;4941861;29;20388;-88
2023/01/05 06:42:50;;;;;;;37.22;18.38;;;;;;;8.91;100.00;101239.19;4940875;29;20035;-88
2023/01/05 06:45:16;;;;;;;36.55;18.65;;;;;;;8.92;100.00;101239.97;4937608;29;20028;-87
2023/01/05 06:47:44;;;;;;;36.03;18.65;;;;;;;9.00;100.00;101238.38;4940118;29;20035;-88
2023/01/05 06:50:31;;;;;;;28.60;16.75;;;;;;;9.06;100.00;101236.97;4943306;29;20068;-86
2023/01/05 06:52:57;;;;;;;29.88;16.25;;;;;;;9.26;100.00;101242.19;4942220;29;20060;-87
2023/01/05 06:55:23;;;;;;;32.40;17.95;;;;;;;9.40;100.00;101240.13;4938033;29;20087;-86
2023/01/05 06:57:49;;;;;;;36.03;17.90;;;;;;;9.48;100.00;101243.75;4942476;29;20538;-84
2023/01/05 07:00:15;;;;;;;33.33;17.45;;;;;;;9.26;100.00;101239.53;4942144;29;20115;-86
2023/01/05 07:02:41;;;;;;;39.22;20.00;;;;;;;9.44;100.00;101241.53;4939620;29;20082;-86
2023/01/05 07:05:09;;;;;;;35.60;17.83;;;;;;;9.33;100.00;101234.53;4941148;29;20047;-88
2023/01/05 07:07:36;;;;;;;35.88;18.25;;;;;;;9.42;100.00;101233.72;4939722;29;20086;-82
2023/01/05 07:10:02;;;;;;;33.95;17.55;;;;;;;9.36;100.00;101231.63;4945904;29;20055;-87
2023/01/05 07:12:28;;;;;;;36.25;18.17;;;;;;;9.23;100.00;101229.25;4950359;29;20114;-89
2023/01/05 07:14:53;;;;;;;32.45;16.90;;;;;;;9.12;100.00;101232.00;4939366;29;20051;-91
2023/01/05 07:17:22;;;;;;;31.15;17.27;;;;;;;9.10;100.00;101222.53;4943718;29;20051;-90
2023/01/05 07:19:49;;;;;;;32.70;16.27;;;;;;;9.30;100.00;101235.66;4940238;29;20486;-88
2023/01/05 07:22:14;;;;;;;44.30;17.30;;;;;;;9.29;100.00;101233.13;4940668;29;20394;-88
2023/01/05 07:24:40;;;;;;;31.50;16.50;;;;;;;9.13;100.00;101233.66;4939531;29;20085;-86
2023/01/05 07:27:06;;;;;;;31.35;16.63;;;;;;;9.16;100.00;101228.09;4937784;29;20099;-86
2023/01/05 07:29:35;;;;;;;35.10;16.10;;;;;;;9.23;100.00;101218.66;4938821;29;20046;-90
2023/01/05 07:32:01;;;;;;;33.58;16.85;;;;;;;9.31;100.00;101220.63;4920365;29;20414;-88
2023/01/05 07:34:27;;;;;;;30.85;16.00;;;;;;;9.18;100.00;101225.34;4936166;29;20044;-86
2023/01/05 07:36:53;;;;;;;33.28;15.23;;;;;;;9.13;100.00;101232.81;4936881;29;20398;-87
2023/01/05 07:39:19;;;;;;;33.13;16.00;;;;;;;9.23;100.00;101229.25;4937053;29;20032;-85
2023/01/05 07:41:44;;;;;;;29.83;15.40;;;;;;;9.19;100.00;101232.28;4937198;29;20043;-87
2023/01/05 07:44:10;;;;;;;31.95;15.25;;;;;;;9.00;100.00;101225.16;4920172;29;20039;-88
2023/01/05 07:46:38;;;;;;;34.88;16.20;;;;;;;8.82;100.00;101224.09;4934646;29;20108;-89
2023/01/05 07:49:04;;;;;;;29.25;15.55;;;;;;;8.77;100.00;101228.97;4937031;29;20075;-89
2023/01/05 07:51:29;;;;;;;31.27;16.05;;;;;;;8.82;100.00;101227.59;4942270;29;20023;-88
2023/01/05 07:53:55;;;;;;;33.08;16.45;;;;;;;8.76;100.00;101225.47;4920141;29;20426;-87
2023/01/05 07:56:21;;;;;;;32.85;17.58;;;;;;;8.83;100.00;101229.25;4934910;29;20030;-87
2023/01/05 07:58:47;;;;;;;36.85;18.00;;;;;;;8.82;100.00;101229.38;4925132;29;20036;-89
2023/01/05 08:01:14;;;;;;;32.95;18.08;;;;;;;8.76;100.00;101236.03;4945471;29;20541;-85
2023/01/05 08:03:40;;;;;;;37.88;20.20;;;;;;;8.67;100.00;101231.56;4942830;29;20039;-84
2023/01/05 08:06:14;;;;;;;39.13;19.75;;;;;;;8.61;100.00;101229.47;4927881;29;20063;-86
2023/01/05 08:08:41;;;;;;;35.20;17.77;;;;;;;8.64;100.00;101241.56;4934907;29;20032;-84
2023/01/05 08:11:08;;;;;;;37.90;19.10;;;;;;;8.63;100.00;101234.59;4922922;29;20112;-88
2023/01/05 08:16:18;;;;;;;36.65;18.15;;;;;;;8.93;100.00;101231.94;4937152;29;20036;-88
2023/01/05 08:18:44;;;;;;;35.35;19.02;;;;;;;9.03;100.00;101247.81;4935048;29;20154;-89
2023/01/05 08:21:10;;;;;;;40.40;21.15;;;;;;;8.97;100.00;101248.38;4932358;29;20055;-86
2023/01/05 08:23:37;;;;;;;42.55;21.30;;;;;;;8.94;100.00;101240.72;4934062;29;20549;-88
2023/01/05 08:26:04;;;;;;;53.33;26.30;;;;;;;8.88;100.00;101244.72;4933626;29;20035;-86
2023/01/05 08:28:30;;;;;;;61.70;29.25;;;;;;;8.90;100.00;101236.66;4934005;29;20039;-88
2023/01/05 08:31:06;;;;;;;62.03;29.08;;;;;;;8.96;100.00;101246.69;4931811;29;20483;-86
2023/01/05 08:33:32;;;;;;;68.43;30.92;;;;;;;8.98;100.00;101239.47;4931654;29;20043;-90
2023/01/05 08:35:58;;;;;;;70.93;32.63;;;;;;;8.95;100.00;101242.41;4933289;29;20078;-88
2023/01/05 08:38:25;;;;;;;85.93;34.83;;;;;;;8.91;100.00;101248.91;4916758;29;20063;-86
2023/01/05 08:40:52;;;;;;;80.78;35.22;;;;;;;9.01;100.00;101247.97;4935668;29;20040;-87
2023/01/05 08:43:18;;;;;;;88.55;38.20;;;;;;;8.97;100.00;101253.66;4932486;29;20502;-88
2023/01/05 08:45:48;;;;;;;89.03;38.70;;;;;;;9.00;100.00;101248.09;4932484;29;20079;-88
2023/01/05 08:48:14;;;;;;;91.68;40.47;;;;;;;9.01;100.00;101249.78;4933334;29;20054;-86
2023/01/05 08:50:40;;;;;;;98.30;40.25;;;;;;;9.06;100.00;101237.81;4934036;29;20142;-86
2023/01/05 08:53:05;;;;;;;105.85;42.10;;;;;;;9.01;100.00;101255.06;4931906;29;20517;-87
2023/01/05 08:55:31;;;;;;;95.68;41.63;;;;;;;9.04;100.00;101249.50;4932473;29;20244;-85
2023/01/05 08:57:56;;;;;;;96.60;41.63;;;;;;;9.00;100.00;101250.75;4933269;29;20156;-85
2023/01/05 09:00:22;;;;;;;103.20;43.67;;;;;;;9.14;100.00;101245.09;4934320;29;20031;-86
2023/01/05 09:02:48;;;;;;;93.03;41.45;;;;;;;9.11;100.00;101248.00;4935929;29;20483;-88
2023/01/05 09:05:14;;;;;;;99.00;41.20;;;;;;;9.17;100.00;101239.53;4934405;29;20558;-86
2023/01/05 09:07:40;;;;;;;96.72;41.40;;;;;;;9.21;100.00;101246.22;4915464;29;20541;-85
2023/01/05 09:10:06;;;;;;;96.38;40.78;;;;;;;9.27;100.00;101240.38;4932068;29;20122;-88
2023/01/05 09:12:35;;;;;;;90.93;40.55;;;;;;;9.40;100.00;101240.97;4934113;29;20032;-88
2023/01/05 09:15:01;;;;;;;85.35;37.88;;;;;;;9.42;100.00;101243.47;4945417;29;20035;-87
2023/01/05 09:17:27;;;;;;;87.07;38.17;;;;;;;9.41;100.00;101247.94;4931030;29;20402;-91
2023/01/05 09:19:53;;;;;;;77.55;35.40;;;;;;;9.57;100.00;101252.69;4939787;29;20044;-89
2023/01/05 09:22:20;;;;;;;82.15;35.83;;;;;;;9.42;100.00;101254.88;4941511;29;20051;-89
2023/01/05 09:24:46;;;;;;;79.53;34.38;;;;;;;9.24;100.00;101252.09;4940344;29;20036;-90
2023/01/05 09:27:11;;;;;;;72.85;33.38;;;;;;;9.29;100.00;101249.00;4939350;29;20047;-88
2023/01/05 09:29:38;;;;;;;79.50;33.38;;;;;;;9.28;100.00;101244.69;4943585;29;20052;-89
2023/01/05 09:32:05;;;;;;;76.60;32.53;;;;;;;9.23;100.00;101244.28;4930267;29;20098;-88
2023/01/05 09:34:30;;;;;;;76.93;34.08;;;;;;;9.26;100.00;101247.47;4926483;29;20067;-87
2023/01/05 09:36:56;;;;;;;74.30;33.55;;;;;;;9.31;100.00;101247.09;4939992;29;20051;-88
2023/01/05 09:39:23;;;;;;;63.28;31.33;;;;;;;9.31;100.00;101241.78;4941918;29;20032;-88
2023/01/05 09:42:11;;;;;;;69.63;30.90;;;;;;;9.36;100.00;101234.28;4942631;29;20063;-91
2023/01/05 09:44:41;;;;;;;65.97;29.63;;;;;;;9.27;100.00;101241.22;4944908;29;20044;-89
2023/01/05 09:47:17;;;;;;;58.25;28.15;;;;;;;9.43;100.00;101235.41;4937221;29;20062;-90
2023/01/05 09:49:49;;;;;;;57.92;27.75;;;;;;;9.42;100.00;101233.72;4946858;29;20549;-91
2023/01/05 09:52:17;;;;;;;56.70;27.47;;;;;;;9.43;100.00;101226.63;4947946;29;20047;-89
2023/01/05 09:54:43;;;;;;;58.97;28.42;;;;;;;9.49;100.00;101229.56;4952562;29;20059;-90
2023/01/05 09:57:26;;;;;;;65.93;28.25;;;;;;;9.48;100.00;101227.06;4951906;29;20046;-89
2023/01/05 09:59:59;;;;;;;60.88;28.00;;;;;;;9.32;100.00;101222.28;4931167;29;20043;-89
2023/01/05 10:02:45;;;;;;;52.90;27.45;;;;;;;9.26;100.00;101233.41;4942508;29;20118;-89
2023/01/05 10:05:12;;;;;;;52.65;25.83;;;;;;;9.31;100.00;101221.44;4936481;29;20055;-90
2023/01/05 10:07:49;;;;;;;52.20;24.65;;;;;;;9.38;100.00;101216.44;4939335;29;20036;-91
2023/01/05 10:13:52;;;;;;;51.67;25.08;;;;;;;9.70;100.00;101206.44;4917425;29;20048;-90
2023/01/05 10:16:17;;;;;;;52.92;24.75;;;;;;;9.67;100.00;101217.31;4934007;29;20052;-89
2023/01/05 10:18:44;;;;;;;49.67;25.00;;;;;;;9.61;100.00;101209.91;4936840;29;20035;-86
2023/01/05 10:21:37;;;;;;;51.97;24.35;;;;;;;9.64;100.00;101207.00;4918988;29;20063;-89
2023/01/05 10:24:18;;;;;;;45.17;23.67;;;;;;;9.65;100.00;101213.13;4935803;29;20557;-88
2023/01/05 10:26:51;;;;;;;50.85;25.42;;;;;;;9.63;100.00;101210.63;4935764;29;20580;-88
2023/01/05 10:29:31;;;;;;;52.88;26.92;;;;;;;9.54;100.00;101205.34;4935292;29;20732;-83
2023/01/05 10:32:08;;;;;;;55.97;27.27;;;;;;;9.54;100.00;101195.59;4938923;29;20058;-87
2023/01/05 10:35:05;;;;;;;54.42;27.50;;;;;;;9.61;100.00;101193.22;4939142;29;20062;-85
2023/01/05 10:37:55;;;;;;;59.10;28.40;;;;;;;9.68;100.00;101191.66;4934229;29;20040;-88
2023/01/05 10:40:26;;;;;;;63.10;27.45;;;;;;;9.82;100.00;101189.44;4938743;29;20031;-87
2023/01/05 10:42:58;;;;;;;56.72;26.15;;;;;;;9.96;100.00;101185.53;4935497;29;20036;-86
2023/01/05 10:45:26;;;;;;;54.97;26.73;;;;;;;9.85;100.00;101183.00;4934471;29;20126;-89
2023/01/05 10:47:52;;;;;;;55.35;25.83;;;;;;;9.73;100.00;101185.00;4918662;29;20127;-86
2023/01/05 10:50:46;;;;;;;54.63;26.65;;;;;;;9.70;100.00;101179.16;4935892;29;20086;-88
2023/01/05 10:53:25;;;;;;;56.20;26.77;;;;;;;9.67;100.00;101174.97;4938851;29;20036;-87
2023/01/05 10:56:12;;;;;;;57.17;26.63;;;;;;;9.72;100.00;101171.88;4935407;29;20470;-87
2023/01/05 10:58:44;;;;;;;57.42;26.10;;;;;;;9.63;100.00;101163.00;4938607;29;20032;-90
2023/01/05 11:01:34;;;;;;;60.00;27.67;;;;;;;9.61;100.00;101156.19;4920714;29;20044;-90
2023/01/05 11:04:15;;;;;;;56.35;26.55;;;;;;;9.77;100.00;101159.09;4937279;29;20047;-89
2023/01/05 11:06:40;;;;;;;51.72;26.30;;;;;;;9.72;100.00;101156.84;4937092;29;20075;-91
2023/01/05 11:09:14;;;;;;;51.50;26.27;;;;;;;9.82;100.00;101162.13;4937169;29;20043;-89
2023/01/05 11:11:39;;;;;;;50.03;25.55;;;;;;;9.83;100.00;101163.81;4936762;29;20098;-87
2023/01/05 11:14:11;;;;;;;52.17;26.27;;;;;;;9.92;100.00;101157.66;4934371;29;20418;-90
2023/01/05 11:16:37;;;;;;;55.53;27.00;;;;;;;9.76;100.00;101152.94;4939344;29;20574;-89
2023/01/05 11:19:31;;;;;;;53.90;27.25;;;;;;;9.78;100.00;101156.28;4928313;29;20133;-87
2023/01/05 11:21:56;;;;;;;57.53;27.15;;;;;;;9.88;100.00;101151.81;4937287;29;20094;-86
2023/01/05 11:24:35;;;;;;;55.15;27.08;;;;;;;9.92;100.00;101147.06;4919966;29;20043;-89
2023/01/05 11:27:19;;;;;;;56.85;28.83;;;;;;;9.83;100.00;101134.69;4934833;29;20046;-88
2023/01/05 11:30:08;;;;;;;51.22;26.23;;;;;;;9.83;100.00;101132.88;4936346;29;20047;-88
2023/01/05 11:32:33;;;;;;;56.25;26.15;;;;;;;9.90;100.00;101137.59;4935977;29;20032;-91
2023/01/05 11:35:00;;;;;;;54.13;26.92;;;;;;;10.02;100.00;101136.44;4938678;29;20035;-90
2023/01/05 11:37:31;;;;;;;59.05;28.20;;;;;;;10.10;100.00;101124.16;4950273;29;20053;-87
2023/01/05 11:40:04;;;;;;;55.45;26.65;;;;;;;10.18;100.00;101120.81;4940615;29;20483;-90
2023/01/05 11:42:31;;;;;;;;;;;;;;;10.08;100.00;101123.47;4942881;29;20103;-91
2023/01/05 11:45:21;;;;;;;58.58;26.38;;;;;;;10.07;100.00;101113.03;4947620;29;19972;-89
2023/01/05 11:48:12;;;;;;;58.22;27.38;;;;;;;10.00;100.00;101106.63;4945980;29;20040;-89
2023/01/05 11:50:53;;;;;;;55.97;26.73;;;;;;;9.99;100.00;101100.50;4935877;29;20107;-91
2023/01/05 11:53:25;;;;;;;57.40;27.17;;;;;;;9.88;100.00;101090.91;4925230;29;20126;-86
2023/01/05 11:56:06;;;;;;;54.30;27.58;;;;;;;9.91;100.00;101096.91;4941116;29;20131;-88
2023/01/05 11:58:47;;;;;;;53.17;27.02;;;;;;;9.94;100.00;101091.31;4944683;29;20041;-90